KMMU/MMU METAR and TAF weather

Enter ICAO airport designator
Station Type Date Time Source
KMMU METAR 2022/06/27 17:45 UTC NOAA

KMMU 271745Z 35010G16KT 1/2SM OVC009 21/20 A2995


Station Type Date Time Source
KMMU Decoded METAR 2022/06/27 17:45 UTC NOAA

Morristown Municipal, NJ, United States (KMMU) 40-48N 074-25W
Jun 27, 2022 - 01:45 PM EDT / 2022.06.27 1745 UTC
Wind: from the N (350 degrees) at 12 MPH (10 KT) gusting to 18 MPH (16 KT):0
Visibility: 1/2 mile(s):0
Sky conditions: overcast
Temperature: 69 F (21 C)
Dew Point: 68 F (20 C)
Relative Humidity: 94%
Pressure (altimeter): 29.95 in. Hg (1014 hPa)
ob: KMMU 271745Z 35010G16KT 1/2SM OVC009 21/20 A2995
cycle: 18

Station Type Date Time Source
KMMU TAF UTC NOAA

Error!

Example: see airport list